Atchison, KS

1:18 PM CDT on August 25, 2019 (GMT -0500)
Newmann Farm | | Change Station

Elev 873 ft 39.64 °N, 95.11 °W | Updated 19 minutes ago

Rain
Rain
66.7 °F
Feels Like 66.7 °F
N
2
Wind Variable Wind from SE
Gusts 5.0 mph

Today
High -- | Low -- °F
--% Chance of Precip.
Yesterday
High -- | Low -- °F
Precip. -- in
Pressure 29.88 in
Visibility 7.0 miles
Clouds Overcast 700 ft
Dew Point 60 °F
Humidity 82%
Rainfall 0.44 in
Snow Depth Not available.
6:42 AM 8:02 PM
Waning Crescent, 28% visible
METAR KSTJ 251753Z 11006KT 7SM -RA OVC007 19/18 A2989 RMK AO2 LTG DSNT NE CIG 005V010 SLP116 P0003 60046 T01940183 10200 20183 58007
Pressure 29.88 in
Visibility 7.0 miles
Clouds Overcast 700 ft
Dew Point 60 °F
Humidity 82%
Rainfall 0.44 in
Snow Depth Not available.
6:42 AM 8:02 PM
Waning Crescent, 28% visible
METAR KSTJ 251753Z 11006KT 7SM -RA OVC007 19/18 A2989 RMK AO2 LTG DSNT NE CIG 005V010 SLP116 P0003 60046 T01940183 10200 20183 58007

Get Severe Weather Alerts

Thanks for signing up!

Be on the lookout for a verification email in your inbox.

You'll start receiving the daily forecast at 6 AM.

×

10-Day Weather Forecast

Almanac

Astronomy

Aug. 25, 2019 Rise Set
Actual Time
Civil Twilight
Nautical Twilight
Astronomical Twilight
Moon
Length of Visible Light
Length of Day
Tomorrow will be .
, % of the Moon is Illuminated

Today's Extremes

State Highs State Lows

Community

WunderPhotos

Category 6

Welcome to Category 6. This is the collective home for Weather Underground's featured writeups by Dr. Jeff Masters (right), Bob Henson (left), Chris Burt, and other regular contributors.

Nearby

Air Quality

  Air Quality AQ Index Pollutant
Not available.

Snow Depth

Station Depth Elevation

Earthquake Activity

City Distance Mag. Time & Date
Minimum magnitude displayed is 2.5.

Coastal Water Temperatures

Place Temperature

Stations

Nearby Weather Stations

Station Location Temp. Windchill Dew Point Humidity Wind Precip. Elev Updated Type
                   

Watches & Warnings

There are currently no watches in effect.